MSC Jordan — HPMK — position and weather

sailwx.info

Track history (hours):
 
Tides and Currents Weather Stations Pressure Air Temp Water Temp Dewpoint Dewpoint Depression Visibility Wind Speed Wind Dir Waves Ship Positions

MSC Jordan

Last reported at 2017-Jul-23 23:03 UTC. Time now 2017-Jul-24 22:39 UTC.
Position N 39°15' W 009°52'.

Length 237 m; draft 8.8 m.

Type: Ship. MMSI: 355194000.

Date/timePositionNaut miles runAvg speedWind from/ knotsBaromVisibWave heightAir tempDewpointWater temp
2017-Jul-23 23:03N 39°15' W 009°52'217.7
2017-Jul-23 22:57N 39°13' W 009°52'817.5
2017-Jul-23 22:30N 39°06' W 009°52'917.5
2017-Jul-23 22:00N 38°57' W 009°53'917.7
2017-Jul-23 21:29N 38°48' W 009°52'917.8
2017-Jul-23 21:00N 38°39' W 009°51'917.5
2017-Jul-23 20:30N 38°30' W 009°50'917.2
2017-Jul-23 20:00N 38°22' W 009°51'917.3
2017-Jul-23 19:30N 38°13' W 009°51'917.5
2017-Jul-23 19:00N 38°04' W 009°51'917.1
2017-Jul-23 18:27N 37°55' W 009°52'3217.0
2017-Jul-23 16:35N 37°23' W 009°53'416.9
2017-Jul-23 16:22N 37°20' W 009°53'8317.3
2017-Jul-23 11:34N 35°56' W 009°57'117.7
2017-Jul-23 11:30N 35°55' W 009°57'1217.6
2017-Jul-23 10:49N 35°43' W 009°58'24816.2
2017-Jul-22 19:27N 31°35' W 010°05'715.1
2017-Jul-22 18:58N 31°27' W 010°04'814.8
2017-Jul-22 18:25N 31°19' W 010°03'  
2017-Jul-19 22:33N 30°15' W 010°19'115.2
2017-Jul-19 22:30N 30°15' W 010°19'815.5
2017-Jul-19 22:00N 30°13' W 010°28'9516.0
2017-Jul-19 16:04N 29°55' W 012°16'115.9
2017-Jul-19 16:00N 29°54' W 012°17'1515.6
2017-Jul-19 15:01N 29°51' W 012°34'115.6
2017-Jul-19 14:56N 29°51' W 012°36'1715.6
2017-Jul-19 13:49N 29°47' W 012°56'3715.5
2017-Jul-19 11:24N 29°38' W 013°37'1015.4
2017-Jul-19 10:47N 29°32' W 013°46'515.6
2017-Jul-19 10:28N 29°29' W 013°50'715.4
2017-Jul-19 09:59N 29°24' W 013°56'715.3
2017-Jul-19 09:30N 29°18' W 014°02'815.3
2017-Jul-19 09:00N 29°13' W 014°08'815.2
2017-Jul-19 08:30N 29°08' W 014°14'815.5
2017-Jul-19 07:59N 29°02' W 014°21'917.7
2017-Jul-19 07:30N 28°56' W 014°28'917.8
2017-Jul-19 07:00N 28°50' W 014°35'815.8
2017-Jul-19 06:30N 28°44' W 014°41'815.8
2017-Jul-19 06:00N 28°38' W 014°48'815.8
2017-Jul-19 05:30N 28°33' W 014°54'815.8
2017-Jul-19 05:00N 28°27' W 015°00'815.9
2017-Jul-19 04:30N 28°22' W 015°07'815.8
2017-Jul-19 04:00N 28°16' W 015°13'815.7
2017-Jul-19 03:30N 28°10' W 015°19'510.9
2017-Jul-19 03:00N 28°08' W 015°25'0 0.7
2017-Jul-19 02:28N 28°08' W 015°25'0 0.0
2017-Jul-19 01:58N 28°08' W 015°25'0 0.0
2017-Jul-19 01:19N 28°08' W 015°25'0 0.0
2017-Jul-19 00:58N 28°08' W 015°25'0 0.0
2017-Jul-19 00:19N 28°08' W 015°25'0 0.0
2017-Jul-18 23:49N 28°08' W 015°25'0 0.0
2017-Jul-18 23:19N 28°08' W 015°25'0 0.0
2017-Jul-18 22:52N 28°08' W 015°25'0 0.0
2017-Jul-18 22:22N 28°08' W 015°25'0 0.0
2017-Jul-18 21:52N 28°08' W 015°25'0 0.0
2017-Jul-18 21:22N 28°08' W 015°25'0 0.0
2017-Jul-18 20:52N 28°08' W 015°25'0 0.0
2017-Jul-18 20:22N 28°08' W 015°25'0 0.0
2017-Jul-18 19:55N 28°08' W 015°25'0 0.0
2017-Jul-18 19:29N 28°08' W 015°25'0 0.0
2017-Jul-18 18:53N 28°08' W 015°25'0 0.0
2017-Jul-18 18:08N 28°08' W 015°25'0 0.0
2017-Jul-18 18:00N 28°08' W 015°25'0 0.8
2017-Jul-18 17:30N 28°08' W 015°25'1 2.3
2017-Jul-18 17:00N 28°07' W 015°24'3 5.9
2017-Jul-18 16:30N 28°05' W 015°21'714.6
2017-Jul-18 16:00N 27°60' W 015°15'714.7
2017-Jul-18 15:30N 27°53' W 015°15'714.5
2017-Jul-18 15:00N 27°45' W 015°16'2014.5
2017-Jul-18 13:40N 27°27' W 015°22'615.0
2017-Jul-18 13:17N 27°21' W 015°24'415.0
2017-Jul-18 13:00N 27°17' W 015°26'814.7
2017-Jul-18 12:28N 27°10' W 015°29'1115.1
2017-Jul-18 11:44N 26°59' W 015°33'615.3
2017-Jul-18 11:19N 26°53' W 015°35'615.6
2017-Jul-18 10:57N 26°48' W 015°37'2215.9
2017-Jul-18 09:32N 26°26' W 015°45'315.8
2017-Jul-18 09:19N 26°23' W 015°46'516.0
2017-Jul-18 08:59N 26°19' W 015°49'816.2
2017-Jul-18 08:28N 26°11' W 015°53'1517.3
2017-Jul-18 07:37N 25°57' W 015°59'218.5
2017-Jul-18 07:30N 25°55' W 015°59'1417.5
2017-Jul-18 06:44N 25°43' W 016°05'1015.8
2017-Jul-18 06:04N 25°33' W 016°09'215.7
2017-Jul-18 05:55N 25°31' W 016°10'615.7
2017-Jul-18 05:30N 25°25' W 016°13'1315.6
2017-Jul-18 04:39N 25°12' W 016°18'13015.5
2017-Jul-17 20:15N 23°09' W 017°04'6715.7
2017-Jul-17 15:59N 22°06' W 017°28'915.8
2017-Jul-17 15:26N 21°57' W 017°31'716.3
2017-Jul-17 15:00N 21°51' W 017°33'1315.7
2017-Jul-17 14:12N 21°39' W 017°38'317.1
2017-Jul-17 14:00N 21°35' W 017°39'1315.6
2017-Jul-17 13:09N 21°23' W 017°44'415.3
2017-Jul-17 12:53N 21°19' W 017°45'715.3
2017-Jul-17 12:26N 21°13' W 017°48'22616.1
2017-Jul-16 22:23N 17°27' W 017°53'616.4
2017-Jul-16 22:00N 17°21' W 017°53'  
Track history (hours):
 
Tides and Currents Weather Stations Pressure Air Temp Water Temp Dewpoint Dewpoint Depression Visibility Wind Speed Wind Dir Waves Ship Positions

MSC Jordan

Last reported at 2017-Jul-23 23:03 UTC. Time now 2017-Jul-24 22:39 UTC.
Position N 39°15' W 009°52'.

Length 237 m; draft 8.8 m.

Type: Ship. MMSI: 355194000.

Date/timePositionNaut miles runAvg speedWind from/ knotsBaromVisibWave heightAir tempDewpointWater temp
2017-Jul-23 23:03N 39°15' W 009°52'217.7
2017-Jul-23 22:57N 39°13' W 009°52'817.5
2017-Jul-23 22:30N 39°06' W 009°52'917.5
2017-Jul-23 22:00N 38°57' W 009°53'917.7
2017-Jul-23 21:29N 38°48' W 009°52'917.8
2017-Jul-23 21:00N 38°39' W 009°51'917.5
2017-Jul-23 20:30N 38°30' W 009°50'917.2
2017-Jul-23 20:00N 38°22' W 009°51'917.3
2017-Jul-23 19:30N 38°13' W 009°51'917.5
2017-Jul-23 19:00N 38°04' W 009°51'917.1
2017-Jul-23 18:27N 37°55' W 009°52'3217.0
2017-Jul-23 16:35N 37°23' W 009°53'416.9
2017-Jul-23 16:22N 37°20' W 009°53'8317.3
2017-Jul-23 11:34N 35°56' W 009°57'117.7
2017-Jul-23 11:30N 35°55' W 009°57'1217.6
2017-Jul-23 10:49N 35°43' W 009°58'24816.2
2017-Jul-22 19:27N 31°35' W 010°05'715.1
2017-Jul-22 18:58N 31°27' W 010°04'814.8
2017-Jul-22 18:25N 31°19' W 010°03'  
2017-Jul-19 22:33N 30°15' W 010°19'115.2
2017-Jul-19 22:30N 30°15' W 010°19'815.5
2017-Jul-19 22:00N 30°13' W 010°28'9516.0
2017-Jul-19 16:04N 29°55' W 012°16'115.9
2017-Jul-19 16:00N 29°54' W 012°17'1515.6
2017-Jul-19 15:01N 29°51' W 012°34'115.6
2017-Jul-19 14:56N 29°51' W 012°36'1715.6
2017-Jul-19 13:49N 29°47' W 012°56'3715.5
2017-Jul-19 11:24N 29°38' W 013°37'1015.4
2017-Jul-19 10:47N 29°32' W 013°46'515.6
2017-Jul-19 10:28N 29°29' W 013°50'715.4
2017-Jul-19 09:59N 29°24' W 013°56'715.3
2017-Jul-19 09:30N 29°18' W 014°02'815.3
2017-Jul-19 09:00N 29°13' W 014°08'815.2
2017-Jul-19 08:30N 29°08' W 014°14'815.5
2017-Jul-19 07:59N 29°02' W 014°21'917.7
2017-Jul-19 07:30N 28°56' W 014°28'917.8
2017-Jul-19 07:00N 28°50' W 014°35'815.8
2017-Jul-19 06:30N 28°44' W 014°41'815.8
2017-Jul-19 06:00N 28°38' W 014°48'815.8
2017-Jul-19 05:30N 28°33' W 014°54'815.8
2017-Jul-19 05:00N 28°27' W 015°00'815.9
2017-Jul-19 04:30N 28°22' W 015°07'815.8
2017-Jul-19 04:00N 28°16' W 015°13'815.7
2017-Jul-19 03:30N 28°10' W 015°19'510.9
2017-Jul-19 03:00N 28°08' W 015°25'0 0.7
2017-Jul-19 02:28N 28°08' W 015°25'0 0.0
2017-Jul-19 01:58N 28°08' W 015°25'0 0.0
2017-Jul-19 01:19N 28°08' W 015°25'0 0.0
2017-Jul-19 00:58N 28°08' W 015°25'0 0.0
2017-Jul-19 00:19N 28°08' W 015°25'0 0.0
2017-Jul-18 23:49N 28°08' W 015°25'0 0.0
2017-Jul-18 23:19N 28°08' W 015°25'0 0.0
2017-Jul-18 22:52N 28°08' W 015°25'0 0.0
2017-Jul-18 22:22N 28°08' W 015°25'0 0.0
2017-Jul-18 21:52N 28°08' W 015°25'0 0.0
2017-Jul-18 21:22N 28°08' W 015°25'0 0.0
2017-Jul-18 20:52N 28°08' W 015°25'0 0.0
2017-Jul-18 20:22N 28°08' W 015°25'0 0.0
2017-Jul-18 19:55N 28°08' W 015°25'0 0.0
2017-Jul-18 19:29N 28°08' W 015°25'0 0.0
2017-Jul-18 18:53N 28°08' W 015°25'0 0.0
2017-Jul-18 18:08N 28°08' W 015°25'0 0.0
2017-Jul-18 18:00N 28°08' W 015°25'0 0.8
2017-Jul-18 17:30N 28°08' W 015°25'1 2.3
2017-Jul-18 17:00N 28°07' W 015°24'3 5.9
2017-Jul-18 16:30N 28°05' W 015°21'714.6
2017-Jul-18 16:00N 27°60' W 015°15'714.7
2017-Jul-18 15:30N 27°53' W 015°15'714.5
2017-Jul-18 15:00N 27°45' W 015°16'2014.5
2017-Jul-18 13:40N 27°27' W 015°22'615.0
2017-Jul-18 13:17N 27°21' W 015°24'415.0
2017-Jul-18 13:00N 27°17' W 015°26'814.7
2017-Jul-18 12:28N 27°10' W 015°29'1115.1
2017-Jul-18 11:44N 26°59' W 015°33'615.3
2017-Jul-18 11:19N 26°53' W 015°35'615.6
2017-Jul-18 10:57N 26°48' W 015°37'2215.9
2017-Jul-18 09:32N 26°26' W 015°45'315.8
2017-Jul-18 09:19N 26°23' W 015°46'516.0
2017-Jul-18 08:59N 26°19' W 015°49'816.2
2017-Jul-18 08:28N 26°11' W 015°53'1517.3
2017-Jul-18 07:37N 25°57' W 015°59'218.5
2017-Jul-18 07:30N 25°55' W 015°59'1417.5
2017-Jul-18 06:44N 25°43' W 016°05'1015.8
2017-Jul-18 06:04N 25°33' W 016°09'215.7
2017-Jul-18 05:55N 25°31' W 016°10'615.7
2017-Jul-18 05:30N 25°25' W 016°13'1315.6
2017-Jul-18 04:39N 25°12' W 016°18'13015.5
2017-Jul-17 20:15N 23°09' W 017°04'6715.7
2017-Jul-17 15:59N 22°06' W 017°28'915.8
2017-Jul-17 15:26N 21°57' W 017°31'716.3
2017-Jul-17 15:00N 21°51' W 017°33'1315.7
2017-Jul-17 14:12N 21°39' W 017°38'317.1
2017-Jul-17 14:00N 21°35' W 017°39'1315.6
2017-Jul-17 13:09N 21°23' W 017°44'415.3
2017-Jul-17 12:53N 21°19' W 017°45'715.3
2017-Jul-17 12:26N 21°13' W 017°48'22616.1
2017-Jul-16 22:23N 17°27' W 017°53'616.4
2017-Jul-16 22:00N 17°21' W 017°53'  

Dump ship's entire track history